createdAt,value
2023-04-01T00:00:37.108Z,11.82
2023-04-01T00:03:05.239Z,11.74
2023-04-01T00:05:33.420Z,11.58
2023-04-01T00:08:01.878Z,11.56
2023-04-01T00:10:29.854Z,11.51
2023-04-01T00:12:57.769Z,11.49
2023-04-01T00:15:25.713Z,11.41
2023-04-01T00:17:55.402Z,11.31
2023-04-01T00:20:23.665Z,11.23
2023-04-01T00:22:53.020Z,11.18
2023-04-01T00:25:21.113Z,11.15
2023-04-01T00:27:49.113Z,11.02
2023-04-01T00:30:17.417Z,10.75
2023-04-01T00:32:45.681Z,10.89
2023-04-01T00:35:15.030Z,10.83
2023-04-01T00:37:42.922Z,10.94
2023-04-01T00:40:25.726Z,10.89
2023-04-01T00:42:53.701Z,10.82
2023-04-01T00:45:32.438Z,10.62
2023-04-01T00:48:04.048Z,10.55
2023-04-01T00:50:35.360Z,10.47
2023-04-01T00:53:04.282Z,10.51
2023-04-01T00:55:36.288Z,10.49
2023-04-01T00:58:07.849Z,10.43
2023-04-01T01:00:38.077Z,10.21
2023-04-01T01:03:06.209Z,10.24
2023-04-01T01:05:49.906Z,10.24
2023-04-01T01:08:25.303Z,9.89
2023-04-01T01:10:53.260Z,9.97
2023-04-01T01:13:28.181Z,9.84
2023-04-01T01:16:00.916Z,9.72
2023-04-01T01:18:37.154Z,9.90
2023-04-01T01:21:49.590Z,9.84
2023-04-01T01:24:32.514Z,9.77
2023-04-01T01:27:06.555Z,9.88
2023-04-01T01:30:16.552Z,10.10
2023-04-01T01:32:59.288Z,10.06
2023-04-01T01:35:33.053Z,9.96
2023-04-01T01:38:05.774Z,10.09
2023-04-01T01:40:36.718Z,10.07
2023-04-01T01:43:14.869Z,10.06
2023-04-01T01:45:48.108Z,10.19
2023-04-01T01:48:18.985Z,10.14
2023-04-01T01:50:50.601Z,10.28
2023-04-01T01:53:18.707Z,10.05
2023-04-01T01:55:48.338Z,10.25
2023-04-01T01:58:19.752Z,10.27
2023-04-01T02:00:52.374Z,10.22
2023-04-01T02:03:23.681Z,10.19
2023-04-01T02:05:55.978Z,10.53
2023-04-01T02:08:28.692Z,10.59
2023-04-01T02:11:00.433Z,10.58
2023-04-01T02:13:34.390Z,10.77
2023-04-01T02:16:08.522Z,10.78
2023-04-01T02:18:38.421Z,11.04
2023-04-01T02:21:09.316Z,11.15
2023-04-01T02:23:38.802Z,11.06
2023-04-01T02:26:09.097Z,10.86
2023-04-01T02:28:41.270Z,10.92
2023-04-01T02:31:11.287Z,11.00
2023-04-01T02:33:41.111Z,11.06
2023-04-01T02:36:15.146Z,10.98
2023-04-01T02:38:44.968Z,10.86
2023-04-01T02:41:13.120Z,10.79
2023-04-01T02:43:41.062Z,10.91
2023-04-01T02:46:09.153Z,10.84
2023-04-01T02:48:37.233Z,11.05
2023-04-01T02:51:05.465Z,11.00
2023-04-01T02:53:34.789Z,10.95
2023-04-01T02:56:02.732Z,10.92
2023-04-01T02:58:30.913Z,11.03
2023-04-01T03:00:58.925Z,11.02
2023-04-01T03:03:27.098Z,10.99
2023-04-01T03:05:56.973Z,10.96
2023-04-01T03:08:24.938Z,10.89
2023-04-01T03:10:54.221Z,10.84
2023-04-01T03:13:22.267Z,10.78
2023-04-01T03:15:50.346Z,10.84
2023-04-01T03:18:18.247Z,10.84
2023-04-01T03:20:46.140Z,10.92
2023-04-01T03:23:14.499Z,10.82
2023-04-01T03:25:42.411Z,10.82
2023-04-01T03:28:11.746Z,10.66
2023-04-01T03:30:39.694Z,10.43
2023-04-01T03:33:07.719Z,10.58
2023-04-01T03:35:37.043Z,10.38
2023-04-01T03:38:05.167Z,10.60
2023-04-01T03:40:34.099Z,10.49
2023-04-01T03:43:02.112Z,10.66
2023-04-01T03:45:31.607Z,10.64
2023-04-01T03:47:59.734Z,10.65
2023-04-01T03:50:28.125Z,10.78
2023-04-01T03:52:56.694Z,10.79
2023-04-01T03:55:25.085Z,10.83
2023-04-01T03:57:52.989Z,10.85
2023-04-01T04:00:21.637Z,10.84
2023-04-01T04:02:51.428Z,10.72
2023-04-01T04:05:19.406Z,10.92
2023-04-01T04:07:47.285Z,10.94
2023-04-01T04:10:15.481Z,10.92
2023-04-01T04:12:43.401Z,10.97
2023-04-01T04:15:12.107Z,11.00
2023-04-01T04:17:40.652Z,10.75
2023-04-01T04:20:11.245Z,10.94
2023-04-01T04:22:39.245Z,10.79
2023-04-01T04:25:07.984Z,10.87
2023-04-01T04:27:36.199Z,10.84
2023-04-01T04:30:04.957Z,10.84
2023-04-01T04:32:32.852Z,10.84
2023-04-01T04:35:00.784Z,10.63
2023-04-01T04:37:30.232Z,10.62
2023-04-01T04:39:58.163Z,10.70
2023-04-01T04:42:26.173Z,10.71
2023-04-01T04:44:54.110Z,10.71
2023-04-01T04:47:22.046Z,10.69
2023-04-01T04:49:50.036Z,10.59
2023-04-01T04:52:18.019Z,10.47
2023-04-01T04:54:47.250Z,10.47
2023-04-01T04:57:15.463Z,10.36
2023-04-01T04:59:43.441Z,10.30
2023-04-01T05:02:11.674Z,10.28
2023-04-01T05:04:39.689Z,9.94
2023-04-01T05:07:07.761Z,10.09
2023-04-01T05:09:35.818Z,10.09
2023-04-01T05:12:05.336Z,10.12
2023-04-01T05:14:33.326Z,10.09
2023-04-01T05:17:01.242Z,10.05
2023-04-01T05:19:29.131Z,9.46
2023-04-01T05:21:57.066Z,9.81
2023-04-01T05:24:25.047Z,9.95
2023-04-01T05:26:53.873Z,9.99
2023-04-01T05:29:24.569Z,10.03
2023-04-01T05:31:52.613Z,10.15
2023-04-01T05:34:20.578Z,10.09
2023-04-01T05:36:48.617Z,10.11
2023-04-01T05:39:16.757Z,10.09
2023-04-01T05:41:44.665Z,9.91
2023-04-01T05:44:13.901Z,10.31
2023-04-01T05:46:43.658Z,10.42
2023-04-01T05:49:12.706Z,10.58
2023-04-01T05:51:40.638Z,10.66
2023-04-01T05:54:08.575Z,10.66
2023-04-01T05:56:36.449Z,10.88
2023-04-01T05:59:04.520Z,10.85
2023-04-01T06:01:32.687Z,11.01
2023-04-01T06:04:02.128Z,11.36
2023-04-01T06:06:32.003Z,11.60
2023-04-01T06:09:04.249Z,11.73
2023-04-01T06:11:39.309Z,12.07
2023-04-01T06:14:19.988Z,12.38
2023-04-01T06:17:03.333Z,12.63
2023-04-01T06:19:42.311Z,12.85
2023-04-01T06:22:39.832Z,13.04
2023-04-01T06:25:37.878Z,13.17
2023-04-01T06:28:34.013Z,13.13
2023-04-01T06:31:12.849Z,13.01
2023-04-01T06:33:56.040Z,13.16
2023-04-01T06:36:41.317Z,13.21
2023-04-01T06:39:37.827Z,13.25
2023-04-01T06:42:27.789Z,13.20
2023-04-01T06:45:08.981Z,13.17
2023-04-01T06:47:49.180Z,12.80
2023-04-01T06:50:25.129Z,12.86
2023-04-01T06:53:02.866Z,12.81
2023-04-01T06:55:39.035Z,12.96
2023-04-01T06:58:12.291Z,12.85
2023-04-01T07:00:45.544Z,12.71
2023-04-01T07:03:22.494Z,13.05
2023-04-01T07:05:51.585Z,12.83
2023-04-01T07:08:25.519Z,12.95
2023-04-01T07:10:57.919Z,12.88
2023-04-01T07:13:29.470Z,13.01
2023-04-01T07:16:04.052Z,13.01
2023-04-01T07:18:39.414Z,13.16
2023-04-01T07:21:12.697Z,13.09
2023-04-01T07:23:47.079Z,13.22
2023-04-01T07:26:19.944Z,13.39
2023-04-01T07:28:47.951Z,13.33
2023-04-01T07:31:24.499Z,13.37
2023-04-01T07:34:01.448Z,13.66
2023-04-01T07:36:38.187Z,13.66
2023-04-01T07:39:20.653Z,13.41
2023-04-01T07:41:58.330Z,13.45
2023-04-01T07:44:37.210Z,13.55
2023-04-01T07:47:19.455Z,13.43
2023-04-01T07:49:59.518Z,13.47
2023-04-01T07:52:36.610Z,13.61
2023-04-01T07:55:12.434Z,13.68
2023-04-01T07:57:50.036Z,13.80
2023-04-01T08:00:22.476Z,13.76
2023-04-01T08:03:15.080Z,13.77
2023-04-01T08:05:52.598Z,13.76
2023-04-01T08:08:27.220Z,13.88
2023-04-01T08:11:06.960Z,13.79
2023-04-01T08:13:42.194Z,13.79
2023-04-01T08:16:17.993Z,14.08
2023-04-01T08:18:54.562Z,14.18
2023-04-01T08:21:25.800Z,14.20
2023-04-01T08:23:56.497Z,14.37
2023-04-01T08:26:37.173Z,14.51
2023-04-01T08:29:12.197Z,14.69
2023-04-01T08:31:45.686Z,14.67
2023-04-01T08:34:19.503Z,15.01
2023-04-01T08:36:54.634Z,14.91
2023-04-01T08:39:31.916Z,15.08
2023-04-01T08:42:34.142Z,15.07
2023-04-01T08:45:28.243Z,15.02
2023-04-01T08:48:18.459Z,15.02
2023-04-01T08:51:20.817Z,15.18
2023-04-01T08:54:16.163Z,15.32
2023-04-01T08:56:54.816Z,15.49
2023-04-01T08:59:49.869Z,15.72
2023-04-01T09:02:52.302Z,16.04
2023-04-01T09:05:55.782Z,16.36
2023-04-01T09:08:35.317Z,16.67
2023-04-01T09:11:10.788Z,16.68
2023-04-01T09:13:52.508Z,16.89
2023-04-01T09:16:30.149Z,17.04
2023-04-01T09:19:35.756Z,17.24
2023-04-01T09:22:27.368Z,17.35
2023-04-01T09:25:17.679Z,17.48
2023-04-01T09:27:54.075Z,17.28
2023-04-01T09:30:44.922Z,17.37
2023-04-01T09:33:48.730Z,17.44
2023-04-01T09:36:40.374Z,17.40
2023-04-01T09:39:26.453Z,17.28
2023-04-01T09:42:09.096Z,17.25
2023-04-01T09:44:39.593Z,17.24
2023-04-01T09:47:23.076Z,17.62
2023-04-01T09:50:13.031Z,17.78
2023-04-01T09:52:49.557Z,17.93
2023-04-01T09:55:45.103Z,18.08
2023-04-01T09:58:48.550Z,18.21
2023-04-01T10:01:43.179Z,18.32
2023-04-01T10:04:54.460Z,18.46
2023-04-01T10:07:53.636Z,18.43
2023-04-01T10:10:57.351Z,18.75
2023-04-01T10:13:58.134Z,18.75
2023-04-01T10:17:02.607Z,18.91
2023-04-01T10:20:03.421Z,18.76
2023-04-01T10:23:01.439Z,18.77
2023-04-01T10:25:50.936Z,18.56
2023-04-01T10:29:03.933Z,18.82
2023-04-01T10:32:09.896Z,18.73
2023-04-01T10:35:25.759Z,18.44
2023-04-01T10:38:35.040Z,18.50
2023-04-01T10:41:35.089Z,18.21
2023-04-01T10:45:02.915Z,18.31
2023-04-01T10:48:10.227Z,18.11
2023-04-01T10:51:25.537Z,17.97
2023-04-01T10:54:22.950Z,17.86
2023-04-01T10:56:59.647Z,17.67
2023-04-01T11:00:21.033Z,17.61
2023-04-01T11:03:45.901Z,17.62
2023-04-01T11:06:57.918Z,17.48
2023-04-01T11:09:59.110Z,17.52
2023-04-01T11:13:02.390Z,17.70
2023-04-01T11:16:03.337Z,17.76
2023-04-01T11:19:05.801Z,17.65
2023-04-01T11:21:54.641Z,17.61
2023-04-01T11:24:56.032Z,17.56
2023-04-01T11:27:44.863Z,17.48
2023-04-01T11:30:23.140Z,16.97
2023-04-01T11:32:56.945Z,16.49
2023-04-01T11:35:45.146Z,16.17
2023-04-01T11:38:26.729Z,15.53
2023-04-01T11:41:02.744Z,14.93
2023-04-01T11:43:36.801Z,14.55
2023-04-01T11:46:12.553Z,13.82
2023-04-01T11:48:55.397Z,13.24
2023-04-01T11:51:56.735Z,12.23
2023-04-01T11:54:43.828Z,11.30
2023-04-01T11:57:32.586Z,10.69
2023-04-01T12:00:31.071Z,10.34
2023-04-01T12:03:20.311Z,10.16
2023-04-01T12:05:54.007Z,9.93
2023-04-01T12:08:33.867Z,10.11
2023-04-01T12:11:07.449Z,9.93
2023-04-01T12:13:45.451Z,9.84
2023-04-01T12:16:33.053Z,9.85
2023-04-01T12:19:09.483Z,10.05
2023-04-01T12:21:39.667Z,10.35
2023-04-01T12:24:48.460Z,10.63
2023-04-01T12:27:29.728Z,11.10
2023-04-01T12:30:29.280Z,11.26
2023-04-01T12:33:15.793Z,11.47
2023-04-01T12:35:57.604Z,11.23
2023-04-01T12:38:38.158Z,11.39
2023-04-01T12:41:12.230Z,10.86
2023-04-01T12:44:25.990Z,10.94
2023-04-01T12:47:11.997Z,10.87
2023-04-01T12:49:58.932Z,10.94
2023-04-01T12:52:45.196Z,11.07
2023-04-01T12:55:38.454Z,11.02
2023-04-01T12:58:26.831Z,10.89
2023-04-01T13:01:18.194Z,10.80
2023-04-01T13:04:05.233Z,11.08
2023-04-01T13:06:47.255Z,11.09
2023-04-01T13:09:27.186Z,11.17
2023-04-01T13:12:12.957Z,11.27
2023-04-01T13:15:08.074Z,11.64
2023-04-01T13:17:44.154Z,12.00
2023-04-01T13:20:19.222Z,12.87
2023-04-01T13:23:02.540Z,13.79
2023-04-01T13:25:39.029Z,14.77
2023-04-01T13:28:16.141Z,15.39
2023-04-01T13:30:51.954Z,15.99
2023-04-01T13:33:30.687Z,16.08
2023-04-01T13:36:10.094Z,16.09
2023-04-01T13:39:08.001Z,16.55
2023-04-01T13:41:53.680Z,17.01
2023-04-01T13:44:29.616Z,17.15
2023-04-01T13:47:14.369Z,16.25
2023-04-01T13:50:01.689Z,16.67
2023-04-01T13:52:48.605Z,17.44
2023-04-01T13:55:45.662Z,18.11
2023-04-01T13:58:26.220Z,18.21
2023-04-01T14:01:03.451Z,18.56
2023-04-01T14:03:46.647Z,19.02
2023-04-01T14:06:21.667Z,19.22
2023-04-01T14:09:05.885Z,19.72
2023-04-01T14:11:41.580Z,19.80
2023-04-01T14:14:23.078Z,19.89
2023-04-01T14:17:32.354Z,19.87
2023-04-01T14:20:42.814Z,19.05
2023-04-01T14:23:26.931Z,18.11
2023-04-01T14:26:16.317Z,17.78
2023-04-01T14:28:55.944Z,17.90
2023-04-01T14:31:36.816Z,17.46
2023-04-01T14:34:18.993Z,17.36
2023-04-01T14:37:13.821Z,17.48
2023-04-01T14:40:15.195Z,18.30
2023-04-01T14:43:06.077Z,18.63
2023-04-01T14:46:07.305Z,18.98
2023-04-01T14:48:38.554Z,19.35
2023-04-01T14:51:15.601Z,19.40
2023-04-01T14:53:54.384Z,19.22
2023-04-01T14:56:38.735Z,19.75
2023-04-01T14:59:11.168Z,19.79
2023-04-01T15:01:49.408Z,19.56
2023-04-01T15:04:44.400Z,19.57
2023-04-01T15:07:27.229Z,19.50
2023-04-01T15:10:06.804Z,19.66
2023-04-01T15:12:49.843Z,19.41
2023-04-01T15:15:34.045Z,18.73
2023-04-01T15:18:11.479Z,17.85
2023-04-01T15:21:18.963Z,17.31
2023-04-01T15:24:08.894Z,16.72
2023-04-01T15:27:09.572Z,16.15
2023-04-01T15:30:12.151Z,15.75
2023-04-01T15:32:51.887Z,15.45
2023-04-01T15:35:37.483Z,15.09
2023-04-01T15:38:13.500Z,14.99
2023-04-01T15:40:49.824Z,14.97
2023-04-01T15:43:30.399Z,14.90
2023-04-01T15:46:11.103Z,14.57
2023-04-01T15:48:59.483Z,14.52
2023-04-01T15:54:40.674Z,11.06
2023-04-01T15:57:19.624Z,10.52
2023-04-01T16:00:11.849Z,9.79
2023-04-01T16:02:48.795Z,8.99
2023-04-01T16:05:30.168Z,8.35
2023-04-01T16:08:12.959Z,8.00
2023-04-01T16:10:59.090Z,7.73
2023-04-01T16:13:37.425Z,7.51
2023-04-01T16:16:16.520Z,7.33
2023-04-01T16:19:00.467Z,7.30
2023-04-01T16:21:39.536Z,7.26
2023-04-01T16:24:18.056Z,7.33
2023-04-01T16:26:54.666Z,7.33
2023-04-01T16:29:34.939Z,7.40
2023-04-01T16:32:22.921Z,7.36
2023-04-01T16:35:04.239Z,7.41
2023-04-01T16:37:44.652Z,7.34
2023-04-01T16:40:25.645Z,7.32
2023-04-01T16:42:58.139Z,7.33
2023-04-01T16:45:35.308Z,7.34
2023-04-01T16:48:12.507Z,7.31
2023-04-01T16:50:55.397Z,7.32
2023-04-01T16:53:34.390Z,7.14
2023-04-01T16:56:13.412Z,7.27
2023-04-01T16:58:50.594Z,7.36
2023-04-01T17:01:24.391Z,7.33
2023-04-01T17:03:59.592Z,7.33
2023-04-01T17:06:36.803Z,7.44
2023-04-01T17:09:21.039Z,7.24
2023-04-01T17:11:57.770Z,7.49
2023-04-01T17:14:35.261Z,7.50
2023-04-01T17:17:15.661Z,7.55
2023-04-01T17:20:05.109Z,7.52
2023-04-01T17:22:40.350Z,7.23
2023-04-01T17:25:23.297Z,7.47
2023-04-01T17:27:58.289Z,7.42
2023-04-01T17:30:36.737Z,7.29
2023-04-01T17:33:19.520Z,7.30
2023-04-01T17:35:59.465Z,7.22
2023-04-01T17:38:43.944Z,7.20
2023-04-01T17:41:21.770Z,7.22
2023-04-01T17:43:59.304Z,7.20
2023-04-01T17:46:43.141Z,7.09
2023-04-01T17:49:26.419Z,7.19
2023-04-01T17:52:00.502Z,7.23
2023-04-01T17:54:38.284Z,7.27
2023-04-01T17:57:30.821Z,7.31
2023-04-01T18:00:04.942Z,7.23
2023-04-01T18:02:48.845Z,7.14
2023-04-01T18:05:32.853Z,7.17
2023-04-01T18:08:14.913Z,7.15
2023-04-01T18:10:58.906Z,7.09
2023-04-01T18:14:10.042Z,7.20
2023-04-01T18:16:53.989Z,7.16
2023-04-01T18:19:33.193Z,7.08
2023-04-01T18:22:17.920Z,7.19
2023-04-01T18:24:56.565Z,7.14
2023-04-01T18:27:31.149Z,7.23
2023-04-01T18:30:08.934Z,7.05
2023-04-01T18:32:41.950Z,7.19
2023-04-01T18:35:23.899Z,6.90
2023-04-01T18:37:58.606Z,7.21
2023-04-01T18:40:32.810Z,7.05
2023-04-01T18:43:12.620Z,7.19
2023-04-01T18:45:48.097Z,7.24
2023-04-01T18:48:44.925Z,7.29
2023-04-01T18:51:18.885Z,7.20
2023-04-01T18:53:55.369Z,7.41
2023-04-01T18:56:30.143Z,7.40
2023-04-01T18:59:05.950Z,7.48
2023-04-01T19:01:41.761Z,7.47
2023-04-01T19:04:21.707Z,7.45
2023-04-01T19:06:53.667Z,7.42
2023-04-01T19:09:25.944Z,7.50
2023-04-01T19:12:27.808Z,7.52
2023-04-01T19:15:11.310Z,7.58
2023-04-01T19:17:51.861Z,7.60
2023-04-01T19:20:27.995Z,7.69
2023-04-01T19:23:29.271Z,7.71
2023-04-01T19:25:59.102Z,7.67
2023-04-01T19:28:41.134Z,7.63
2023-04-01T19:31:24.726Z,7.74
2023-04-01T19:34:04.127Z,7.61
2023-04-01T19:36:42.691Z,7.68
2023-04-01T19:39:30.782Z,7.65
2023-04-01T19:42:06.056Z,7.61
2023-04-01T19:44:44.518Z,7.58
2023-04-01T19:47:23.955Z,7.33
2023-04-01T19:50:03.036Z,7.36
2023-04-01T19:52:35.771Z,7.41
2023-04-01T19:55:16.916Z,7.26
2023-04-01T19:57:51.020Z,7.56
2023-04-01T20:00:27.414Z,7.57
2023-04-01T20:03:04.188Z,7.48
2023-04-01T20:05:43.079Z,7.51
2023-04-01T20:08:19.379Z,7.57
2023-04-01T20:10:58.705Z,7.41
2023-04-01T20:13:35.437Z,7.52
2023-04-01T20:16:06.768Z,7.58
2023-04-01T20:18:43.722Z,7.62
2023-04-01T20:21:23.565Z,7.56
2023-04-01T20:23:56.959Z,7.68
2023-04-01T20:26:31.560Z,7.58
2023-04-01T20:29:14.385Z,7.82
2023-04-01T20:31:46.010Z,7.85
2023-04-01T20:34:25.350Z,7.85
2023-04-01T20:37:08.906Z,7.73
2023-04-01T20:39:49.436Z,7.81
2023-04-01T20:42:47.001Z,7.79
2023-04-01T20:45:35.368Z,7.73
2023-04-01T20:48:23.489Z,7.63
2023-04-01T20:50:54.399Z,7.65
2023-04-01T20:53:30.689Z,7.66
2023-04-01T20:56:16.918Z,7.63
2023-04-01T20:58:57.295Z,7.61
2023-04-01T21:01:37.586Z,7.65
2023-04-01T21:04:21.652Z,7.63
2023-04-01T21:07:13.514Z,7.70
2023-04-01T21:09:53.327Z,7.68
2023-04-01T21:12:33.095Z,7.60
2023-04-01T21:15:25.276Z,7.67
2023-04-01T21:18:02.721Z,7.90
2023-04-01T21:20:45.139Z,7.80
2023-04-01T21:23:32.286Z,7.97
2023-04-01T21:26:33.357Z,8.03
2023-04-01T21:29:28.087Z,7.85
2023-04-01T21:32:06.080Z,7.98
2023-04-01T21:34:44.407Z,7.92
2023-04-01T21:37:35.640Z,8.04
2023-04-01T21:40:19.625Z,8.03
2023-04-01T21:42:55.891Z,8.03
2023-04-01T21:45:40.048Z,7.91
2023-04-01T21:48:55.027Z,7.95
2023-04-01T21:51:55.881Z,8.05
2023-04-01T21:54:52.903Z,8.06
2023-04-01T21:57:52.698Z,8.01
2023-04-01T22:00:23.471Z,7.95
2023-04-01T22:03:37.638Z,7.90
2023-04-01T22:06:15.961Z,7.85
2023-04-01T22:09:05.408Z,7.81
2023-04-01T22:11:50.557Z,7.74
2023-04-01T22:14:28.212Z,7.65
2023-04-01T22:17:04.227Z,7.63
2023-04-01T22:19:42.010Z,7.59
2023-04-01T22:22:20.879Z,7.62
2023-04-01T22:25:01.815Z,7.52
2023-04-01T22:27:35.952Z,7.55
2023-04-01T22:30:19.646Z,7.59
2023-04-01T22:32:51.036Z,7.58
2023-04-01T22:35:28.261Z,7.38
2023-04-01T22:38:04.347Z,7.60
2023-04-01T22:40:41.875Z,7.57
2023-04-01T22:43:13.786Z,7.57
2023-04-01T22:46:31.217Z,7.63
2023-04-01T22:49:06.262Z,7.67
2023-04-01T22:51:45.843Z,7.66
2023-04-01T22:54:22.019Z,7.67
2023-04-01T22:56:55.201Z,7.63
2023-04-01T22:59:29.791Z,7.71
2023-04-01T23:02:01.979Z,7.62
2023-04-01T23:04:35.238Z,7.80
2023-04-01T23:07:17.528Z,7.87
2023-04-01T23:09:47.142Z,7.88
2023-04-01T23:12:17.283Z,7.94
2023-04-01T23:14:50.953Z,7.91
2023-04-01T23:17:44.001Z,7.83
2023-04-01T23:20:25.694Z,7.79
2023-04-01T23:23:04.587Z,7.83
2023-04-01T23:25:43.157Z,7.73
2023-04-01T23:28:36.204Z,7.84
2023-04-01T23:31:04.343Z,7.84
2023-04-01T23:33:33.554Z,7.85
2023-04-01T23:36:07.089Z,7.88
2023-04-01T23:38:37.458Z,7.87
2023-04-01T23:41:08.462Z,7.88
2023-04-01T23:43:40.562Z,7.81
2023-04-01T23:46:09.812Z,7.77
2023-04-01T23:48:41.032Z,7.75
2023-04-01T23:51:17.264Z,7.77
2023-04-01T23:53:48.217Z,7.66
2023-04-01T23:56:22.076Z,7.82
2023-04-01T23:58:57.688Z,7.88
